Time;durP1;ratioP1;P1;durP2;ratioP2;P2;SDS_P1;SDS_P2;PMS_P1;PMS_P2;Temp;Humidity;BMP_temperature;BMP_pressure;BME280_temperature;BME280_humidity;BME280_pressure;Samples;Min_cycle;Max_cycle;Signal;HPM_P1;HPM_P2
2021/04/18 00:00:26;;;;;;;;;;;;;;;12.08;57.48;101733.81;4995604;28;97747;-79
2021/04/18 00:02:52;;;;;;;;;;;;;;;12.18;57.60;101740.59;4997939;28;96922;-81
2021/04/18 00:05:19;;;;;;;;;;;;;;;11.61;59.43;101730.56;4997156;28;96839;-78
2021/04/18 00:07:45;;;;;;;;;;;;;;;11.95;58.62;101731.47;4998190;28;98840;-77
2021/04/18 00:10:11;;;;;;;;;;;;;;;12.27;57.56;101721.81;4996111;28;98800;-77
2021/04/18 00:12:37;;;;;;;;;;;;;;;11.52;59.31;101721.03;5005761;28;96678;-77
2021/04/18 00:15:05;;;;;;;;;;;;;;;11.82;58.62;101715.91;4998449;28;98472;-77
2021/04/18 00:17:32;;;;;;;;;;;;;;;11.94;57.94;101710.34;4992750;28;100627;-78
2021/04/18 00:19:58;;;;;;;;;;;;;;;11.48;59.54;101714.09;4994421;28;99025;-78
2021/04/18 00:22:24;;;;;;;;;;;;;;;11.82;58.31;101713.28;4995171;28;97043;-78
2021/04/18 00:24:50;;;;;;;;;;;;;;;12.07;57.73;101709.09;5000329;28;96978;-78
2021/04/18 00:27:15;;;;;;;;;;;;;;;11.75;58.40;101712.56;4999646;28;98810;-78
2021/04/18 00:29:47;;;;;;;;;;;;;;;11.84;57.99;101728.22;5000256;28;98937;-78
2021/04/18 00:32:13;;;;;;;;;;;;;;;12.05;57.49;101720.63;4995980;28;96751;-78
2021/04/18 00:34:40;;;;;;;;;;;;;;;12.12;57.31;101723.09;4997826;28;97037;-78
2021/04/18 00:37:06;;;;;;;;;;;;;;;12.15;57.06;101723.00;4998246;28;100431;-78
2021/04/18 00:39:31;;;;;;;;;;;;;;;12.14;57.03;101726.56;4998476;28;97714;-78
2021/04/18 00:41:57;;;;;;;;;;;;;;;12.30;56.27;101730.53;4992622;28;96879;-78
2021/04/18 00:44:23;;;;;;;;;;;;;;;12.06;57.18;101717.09;4992553;28;96978;-78
2021/04/18 00:46:49;;;;;;;;;;;;;;;12.10;56.94;101711.66;4990407;28;99451;-78
2021/04/18 00:49:15;;;;;;;;;;;;;;;12.18;56.52;101717.63;4988991;28;100346;-79
2021/04/18 00:51:42;;;;;;;;;;;;;;;12.02;56.94;101712.75;4989692;28;96916;-78
2021/04/18 00:54:08;;;;;;;;;;;;;;;12.13;56.62;101710.72;4990181;28;97230;-77
2021/04/18 00:56:33;;;;;;;;;;;;;;;11.51;58.76;101706.06;4989110;28;99065;-78
2021/04/18 00:58:59;;;;;;;;;;;;;;;11.48;59.32;101711.44;4990239;28;98734;-80
2021/04/18 01:01:25;;;;;;;;;;;;;;;11.69;58.16;101701.22;4991182;28;98171;-79
2021/04/18 01:03:52;;;;;;;;;;;;;;;11.28;59.41;101704.88;4988146;28;98378;-78
2021/04/18 01:06:17;;;;;;;;;;;;;;;11.31;59.61;101704.78;4990959;28;98826;-77
2021/04/18 01:08:44;;;;;;;;;;;;;;;11.44;59.40;101701.81;4988586;28;98789;-77
2021/04/18 01:11:10;;;;;;;;;;;;;;;11.74;58.01;101700.25;4992816;28;97473;-77
2021/04/18 01:13:36;;;;;;;;;;;;;;;11.89;57.51;101704.25;4989126;28;97079;-78
2021/04/18 01:16:02;;;;;;;;;;;;;;;12.07;56.89;101705.59;4986853;28;99059;-78
2021/04/18 01:18:27;;;;;;;;;;;;;;;12.16;56.61;101706.19;4988703;28;98154;-79
2021/04/18 01:21:02;;;;;;;;;;;;;;;11.92;57.00;101712.16;4990251;28;97378;-78
2021/04/18 01:23:27;;;;;;;;;;;;;;;11.53;58.55;101716.63;4989999;28;98274;-77
2021/04/18 01:25:53;;;;;;;;;;;;;;;11.53;58.65;101711.31;4996839;28;98864;-78
2021/04/18 01:28:19;;;;;;;;;;;;;;;11.90;57.47;101713.94;4995714;28;98258;-79
2021/04/18 01:30:45;;;;;;;;;;;;;;;11.79;57.73;101713.38;4991132;28;97138;-78
2021/04/18 01:33:11;;;;;;;;;;;;;;;11.85;57.25;101716.72;4988849;28;97479;-78
2021/04/18 01:35:37;;;;;;;;;;;;;;;12.28;56.07;101715.59;4988619;28;101746;-78
2021/04/18 01:38:03;;;;;;;;;;;;;;;12.30;55.82;101705.81;4993471;28;99204;-78
2021/04/18 01:40:30;;;;;;;;;;;;;;;12.72;54.45;101714.38;4994048;28;96771;-78
2021/04/18 01:42:56;;;;;;;;;;;;;;;12.54;54.97;101714.88;4991312;28;97164;-78
2021/04/18 01:45:23;;;;;;;;;;;;;;;12.11;55.83;101716.06;4988351;28;99221;-78
2021/04/18 01:47:49;;;;;;;;;;;;;;;12.04;56.55;101725.06;4989474;28;99001;-77
2021/04/18 01:50:17;;;;;;;;;;;;;;;11.40;57.76;101723.97;4989654;28;98479;-78
2021/04/18 01:52:43;;;;;;;;;;;;;;;11.63;57.68;101722.53;4991348;28;99048;-79
2021/04/18 01:55:11;;;;;;;;;;;;;;;11.64;57.42;101721.66;4991399;28;98958;-78
2021/04/18 01:57:37;;;;;;;;;;;;;;;11.92;56.81;101718.31;4992349;28;99267;-78
2021/04/18 02:00:04;;;;;;;;;;;;;;;11.05;59.33;101714.19;4992561;28;98182;-79
2021/04/18 02:02:29;;;;;;;;;;;;;;;11.30;59.33;101710.97;4989719;28;98575;-78
2021/04/18 02:04:55;;;;;;;;;;;;;;;11.41;58.23;101701.91;4989208;28;98781;-78
2021/04/18 02:07:21;;;;;;;;;;;;;;;11.50;57.86;101712.25;4988395;28;98955;-78
2021/04/18 02:09:47;;;;;;;;;;;;;;;11.25;59.01;101707.59;4993391;28;97483;-78
2021/04/18 02:12:14;;;;;;;;;;;;;;;11.50;58.51;101704.31;4991010;28;97135;-79
2021/04/18 02:14:39;;;;;;;;;;;;;;;11.51;58.50;101708.72;4986762;28;97653;-78
2021/04/18 02:17:05;;;;;;;;;;;;;;;11.26;59.01;101710.19;4986930;28;98868;-77
2021/04/18 02:19:31;;;;;;;;;;;;;;;11.41;58.77;101707.22;4996368;28;96855;-78
2021/04/18 02:21:57;;;;;;;;;;;;;;;11.18;59.39;101699.78;4990867;28;98164;-79
2021/04/18 02:24:23;;;;;;;;;;;;;;;11.81;57.35;101711.56;4993968;28;98386;-77
2021/04/18 02:26:49;;;;;;;;;;;;;;;11.69;57.44;101699.44;4995311;28;98773;-77
2021/04/18 02:29:16;;;;;;;;;;;;;;;11.84;57.40;101699.09;4989285;28;97218;-78
2021/04/18 02:31:42;;;;;;;;;;;;;;;11.50;58.20;101700.81;4988380;28;98186;-78
2021/04/18 02:34:09;;;;;;;;;;;;;;;11.82;57.33;101700.03;4992320;28;98892;-78
2021/04/18 02:36:34;;;;;;;;;;;;;;;12.13;56.24;101700.13;4989324;28;100228;-78
2021/04/18 02:39:00;;;;;;;;;;;;;;;11.48;58.21;101708.81;4991924;28;96913;-78
2021/04/18 02:41:26;;;;;;;;;;;;;;;11.50;58.44;101714.03;4994559;28;97179;-78
2021/04/18 02:43:52;;;;;;;;;;;;;;;11.35;58.65;101717.94;4987579;28;98949;-77
2021/04/18 02:46:19;;;;;;;;;;;;;;;11.43;58.36;101715.97;4990654;28;99019;-78
2021/04/18 02:48:45;;;;;;;;;;;;;;;11.41;58.64;101722.22;4990453;28;98412;-78
2021/04/18 02:51:11;;;;;;;;;;;;;;;11.47;58.41;101716.78;4991886;28;98274;-77
2021/04/18 02:53:37;;;;;;;;;;;;;;;10.95;59.73;101720.59;4991175;28;99407;-78
2021/04/18 02:56:03;;;;;;;;;;;;;;;10.89;60.14;101731.31;4994435;28;101959;-77
2021/04/18 02:58:29;;;;;;;;;;;;;;;10.53;61.07;101732.03;4991429;28;97314;-79
2021/04/18 03:00:54;;;;;;;;;;;;;;;10.42;62.02;101724.34;4991435;28;97200;-78
2021/04/18 03:03:21;;;;;;;;;;;;;;;10.79;60.66;101717.41;4991099;28;99214;-78
2021/04/18 03:05:47;;;;;;;;;;;;;;;10.76;60.92;101712.16;4990975;28;100500;-79
2021/04/18 03:08:13;;;;;;;;;;;;;;;11.23;59.49;101712.91;4992223;28;97389;-79
2021/04/18 03:10:39;;;;;;;;;;;;;;;10.75;60.82;101720.16;4999584;28;96943;-78
2021/04/18 03:13:04;;;;;;;;;;;;;;;10.16;62.49;101724.81;4992343;28;99243;-78
2021/04/18 03:15:30;;;;;;;;;;;;;;;10.17;63.36;101718.66;4988558;28;101116;-78
2021/04/18 03:17:57;;;;;;;;;;;;;;;10.55;61.66;101709.13;4991011;28;97251;-77
2021/04/18 03:20:23;;;;;;;;;;;;;;;10.77;60.92;101723.59;4990441;28;99061;-78
2021/04/18 03:22:49;;;;;;;;;;;;;;;10.11;63.09;101710.78;5002468;28;100322;-79
2021/04/18 03:25:15;;;;;;;;;;;;;;;10.67;60.99;101717.66;5009212;28;100727;-78
2021/04/18 03:27:41;;;;;;;;;;;;;;;10.76;60.71;101712.16;5010641;28;96711;-78
2021/04/18 03:30:07;;;;;;;;;;;;;;;11.21;59.14;101701.50;5006350;28;97721;-79
2021/04/18 03:32:33;;;;;;;;;;;;;;;11.03;59.61;101704.53;4996446;28;98936;-78
2021/04/18 03:34:59;;;;;;;;;;;;;;;11.18;59.21;101699.78;4991903;28;98220;-78
2021/04/18 03:37:26;;;;;;;;;;;;;;;10.60;60.77;101699.31;4994492;28;97016;-78
2021/04/18 03:39:52;;;;;;;;;;;;;;;11.25;59.11;101697.00;4996034;28;97025;-78
2021/04/18 03:42:18;;;;;;;;;;;;;;;10.91;60.48;101689.81;4997178;28;98880;-78
2021/04/18 03:44:43;;;;;;;;;;;;;;;10.68;60.65;101692.97;4988058;28;98855;-78
2021/04/18 03:47:09;;;;;;;;;;;;;;;11.29;59.03;101681.00;4990873;28;98114;-78
2021/04/18 03:49:35;;;;;;;;;;;;;;;11.08;59.94;101685.03;4990167;28;98285;-77
2021/04/18 03:52:01;;;;;;;;;;;;;;;11.30;59.16;101692.47;4994437;28;98879;-78
2021/04/18 03:54:28;;;;;;;;;;;;;;;11.35;58.61;101694.13;4993207;28;98796;-78
2021/04/18 03:56:54;;;;;;;;;;;;;;;10.97;59.91;101708.19;4996310;28;98416;-78
2021/04/18 03:59:20;;;;;;;;;;;;;;;11.18;59.87;101698.91;4993468;28;97424;-79
2021/04/18 04:01:46;;;;;;;;;;;;;;;11.30;59.19;101703.91;4995168;28;98688;-78
2021/04/18 04:04:12;;;;;;;;;;;;;;;11.19;59.35;101705.94;4991855;28;98861;-78
2021/04/18 04:06:38;;;;;;;;;;;;;;;11.04;59.97;101706.28;4995455;28;98904;-78
2021/04/18 04:09:05;;;;;;;;;;;;;;;11.01;60.36;101707.25;4993438;28;96911;-79
2021/04/18 04:11:32;;;;;;;;;;;;;;;10.97;60.82;101710.84;4986149;28;99362;-78
2021/04/18 04:13:57;;;;;;;;;;;;;;;10.72;61.54;101710.50;4994009;28;98943;-77
2021/04/18 04:16:23;;;;;;;;;;;;;;;11.19;60.36;101706.81;4994510;28;96995;-78
2021/04/18 04:18:49;;;;;;;;;;;;;;;11.12;60.41;101694.63;4995257;28;97239;-78
2021/04/18 04:21:15;;;;;;;;;;;;;;;11.56;58.56;101693.56;4996264;28;99002;-79
2021/04/18 04:23:41;;;;;;;;;;;;;;;11.34;58.91;101702.97;5001418;28;98806;-79
2021/04/18 04:26:07;;;;;;;;;;;;;;;11.35;59.28;101699.41;5000222;28;96869;-79
2021/04/18 04:28:34;;;;;;;;;;;;;;;12.10;56.79;101703.72;4998304;28;97072;-78
2021/04/18 04:31:00;;;;;;;;;;;;;;;11.82;57.69;101697.38;4997345;28;98085;-77
2021/04/18 04:33:25;;;;;;;;;;;;;;;11.71;57.88;101712.66;4994374;28;98899;-78
2021/04/18 04:35:51;;;;;;;;;;;;;;;10.94;60.06;101704.75;4993460;28;96881;-77
2021/04/18 04:38:17;;;;;;;;;;;;;;;11.10;60.39;101695.56;4992862;28;97590;-78
2021/04/18 04:40:43;;;;;;;;;;;;;;;11.13;59.66;101711.38;4992758;28;98804;-78
2021/04/18 04:43:09;;;;;;;;;;;;;;;11.38;59.26;101706.38;4994107;28;98807;-78
2021/04/18 04:45:35;;;;;;;;;;;;;;;11.24;59.65;101709.34;4993007;28;97153;-78
2021/04/18 04:48:01;;;;;;;;;;;;;;;11.36;59.24;101709.06;4997742;28;96811;-78
2021/04/18 04:50:27;;;;;;;;;;;;;;;11.54;58.62;101710.44;4993003;28;97773;-78
2021/04/18 04:52:54;;;;;;;;;;;;;;;11.92;57.70;101706.84;4993398;28;99584;-79
2021/04/18 04:55:20;;;;;;;;;;;;;;;12.30;56.53;101704.03;4992654;28;97298;-77
2021/04/18 04:57:45;;;;;;;;;;;;;;;11.32;58.17;101710.06;4995167;28;96887;-77
2021/04/18 05:00:12;;;;;;;;;;;;;;;11.68;58.03;101718.91;4991688;28;98647;-77
2021/04/18 05:02:38;;;;;;;;;;;;;;;10.85;61.05;101723.47;4994499;28;99254;-77
2021/04/18 05:05:05;;;;;;;;;;;;;;;11.46;59.29;101720.31;4993960;28;96803;-77
2021/04/18 05:07:31;;;;;;;;;;;;;;;11.34;59.49;101710.91;4981345;28;98528;-78
2021/04/18 05:09:57;;;;;;;;;;;;;;;11.03;60.18;101725.69;4996390;28;98994;-78
2021/04/18 05:12:22;;;;;;;;;;;;;;;10.21;63.20;101737.94;4995736;28;98760;-78
2021/04/18 05:14:48;;;;;;;;;;;;;;;10.35;63.43;101731.50;4991186;28;96774;-77
2021/04/18 05:17:14;;;;;;;;;;;;;;;10.61;63.09;101727.50;4991835;28;98318;-77
2021/04/18 05:19:41;;;;;;;;;;;;;;;10.41;62.63;101725.25;4992009;28;99043;-78
2021/04/18 05:22:07;;;;;;;;;;;;;;;10.23;63.29;101730.88;4994553;28;98907;-77
2021/04/18 05:24:32;;;;;;;;;;;;;;;10.35;63.62;101731.50;4990776;28;96932;-77
2021/04/18 05:26:58;;;;;;;;;;;;;;;11.04;61.59;101724.81;4994524;28;96815;-78
2021/04/18 05:29:25;;;;;;;;;;;;;;;10.55;62.33;101730.25;4992200;28;98923;-77
2021/04/18 05:31:50;;;;;;;;;;;;;;;10.63;62.61;101730.97;4994858;28;98622;-77
2021/04/18 05:34:16;;;;;;;;;;;;;;;10.65;62.54;101727.38;4990009;28;97436;-77
2021/04/18 05:36:43;;;;;;;;;;;;;;;10.37;63.53;101734.13;4993302;28;96896;-77
2021/04/18 05:39:09;;;;;;;;;;;;;;;10.27;64.19;101733.41;4991276;28;98921;-77
2021/04/18 05:41:34;;;;;;;;;;;;;;;9.98;65.04;101727.75;4993468;28;98811;-78
2021/04/18 05:44:00;;;;;;;;;;;;;;;10.54;63.17;101723.22;4992388;28;97124;-77
2021/04/18 05:46:26;;;;;;;;;;;;;;;10.85;62.30;101721.69;4991421;28;96937;-78
2021/04/18 05:48:52;;;;;;;;;;;;;;;10.67;62.49;101725.59;4993446;28;99029;-79
2021/04/18 05:51:18;;;;;;;;;;;;;;;10.06;64.74;101730.25;4993008;28;98829;-79
2021/04/18 05:53:44;;;;;;;;;;;;;;;10.14;64.68;101738.91;4991729;28;98966;-78
2021/04/18 05:56:10;;;;;;;;;;;;;;;11.08;62.13;101740.59;4993708;28;97328;-78
2021/04/18 05:58:36;;;;;;;;;;;;;;;11.09;61.37;101744.94;4992671;28;98756;-79
2021/04/18 06:01:02;;;;;;;;;;;;;;;11.18;61.25;101738.59;4994583;28;97582;-78
2021/04/18 06:03:27;;;;;;;;;;;;;;;11.31;60.07;101733.91;4992359;28;96909;-80
2021/04/18 06:05:58;;;;;;;;;;;;;;;11.51;60.09;101729.88;4994147;28;97540;-78
2021/04/18 06:08:24;;;;;;;;;;;;;;;11.52;59.56;101741.34;4975030;28;98819;-78
2021/04/18 06:10:51;;;;;;;;;;;;;;;11.08;61.26;101734.44;4993636;28;99185;-78
2021/04/18 06:13:16;;;;;;;;;;;;;;;11.01;61.75;101732.81;4991426;28;97255;-78
2021/04/18 06:15:42;;;;;;;;;;;;;;;11.49;60.12;101725.53;4991212;28;97884;-79
2021/04/18 06:18:08;;;;;;;;;;;;;;;11.61;59.18;101724.38;4992732;28;98821;-78
2021/04/18 06:20:34;;;;;;;;;;;;;;;11.57;59.79;101729.75;4991699;28;97800;-77
2021/04/18 06:23:01;;;;;;;;;;;;;;;11.72;58.91;101739.09;4992591;28;97209;-78
2021/04/18 06:25:27;;;;;;;;;;;;;;;11.54;59.66;101747.47;4988998;28;96787;-77
2021/04/18 06:27:53;;;;;;;;;;;;;;;11.18;60.46;101751.81;4992655;28;98769;-78
2021/04/18 06:30:20;;;;;;;;;;;;;;;11.55;59.36;101752.72;4992839;28;98894;-78
2021/04/18 06:32:46;;;;;;;;;;;;;;;11.33;60.28;101751.50;4990246;28;97765;-78
2021/04/18 06:35:12;;;;;;;;;;;;;;;11.13;60.70;101759.00;4974138;28;96931;-79
2021/04/18 06:37:38;;;;;;;;;;;;;;;11.37;60.10;101741.69;4982399;28;98507;-77
2021/04/18 06:40:05;;;;;;;;;;;;;;;11.06;61.17;101755.63;4992739;28;97981;-77
2021/04/18 06:42:31;;;;;;;;;;;;;;;11.25;61.36;101748.13;4993189;28;97044;-78
2021/04/18 06:44:57;;;;;;;;;;;;;;;10.85;61.89;101756.06;4990613;28;96924;-78
2021/04/18 06:47:24;;;;;;;;;;;;;;;10.86;62.19;101759.56;4992915;28;99272;-79
2021/04/18 06:49:50;;;;;;;;;;;;;;;11.18;61.93;101751.81;4991161;28;97574;-78
2021/04/18 06:52:15;;;;;;;;;;;;;;;11.15;62.15;101759.84;4993741;28;96821;-81
2021/04/18 06:54:41;;;;;;;;;;;;;;;11.40;61.34;101758.38;4992237;28;96914;-79
2021/04/18 06:57:07;;;;;;;;;;;;;;;11.43;61.05;101763.59;4989949;28;99335;-79
2021/04/18 06:59:35;;;;;;;;;;;;;;;11.12;61.53;101755.47;4992536;28;97973;-79
2021/04/18 07:02:02;;;;;;;;;;;;;;;10.43;64.00;101763.09;4989395;28;96844;-78
2021/04/18 07:04:28;;;;;;;;;;;;;;;10.75;63.04;101771.25;4992696;28;99354;-80
2021/04/18 07:06:59;;;;;;;;;;;;;;;11.26;62.11;101760.47;4994960;28;97554;-77
2021/04/18 07:09:26;;;;;;;;;;;;;;;11.62;60.34;101757.91;4996786;28;100389;-79
2021/04/18 07:11:52;;;;;;;;;;;;;;;10.72;63.78;101762.50;4987221;28;97124;-78
2021/04/18 07:14:19;;;;;;;;;;;;;;;10.85;63.02;101757.81;4992809;28;97583;-78
2021/04/18 07:16:45;;;;;;;;;;;;;;;10.89;62.88;101759.53;4993857;28;99340;-78
2021/04/18 07:19:23;;;;;;;;;;;;;;;10.92;62.81;101754.16;4994224;28;98753;-79
2021/04/18 07:21:50;;;;;;;;;;;;;;;11.18;62.31;101746.53;4993515;28;96799;-79
2021/04/18 07:24:16;;;;;;;;;;;;;;;11.38;61.83;101731.06;4992973;28;96829;-78
2021/04/18 07:26:42;;;;;;;;;;;;;;;10.77;63.45;101743.00;4993632;28;98885;-78
2021/04/18 07:29:13;;;;;;;;;;;;;;;10.66;64.38;101749.41;4996369;28;97651;-78
2021/04/18 07:31:39;;;;;;;;;;;;;;;10.89;63.04;101741.88;4999018;28;96895;-79
2021/04/18 07:34:05;;;;;;;;;;;;;;;11.47;61.76;101732.66;5000671;28;98142;-78
2021/04/18 07:36:33;;;;;;;;;;;;;;;11.64;60.50;101737.53;5004453;28;101843;-80
2021/04/18 07:38:59;;;;;;;;;;;;;;;12.24;59.01;101732.50;5007652;28;98362;-80
2021/04/18 07:41:25;;;;;;;;;;;;;;;12.20;58.41;101737.03;5011937;28;96740;-78
2021/04/18 07:43:51;;;;;;;;;;;;;;;11.88;59.58;101734.34;5011524;28;96968;-78
2021/04/18 07:46:18;;;;;;;;;;;;;;;12.19;58.51;101740.56;5013519;27;97796;-79
2021/04/18 07:48:44;;;;;;;;;;;;;;;11.90;59.13;101746.59;5016697;28;97940;-78
2021/04/18 07:51:10;;;;;;;;;;;;;;;11.46;60.82;101742.38;5017663;28;96781;-79
2021/04/18 07:53:37;;;;;;;;;;;;;;;11.83;59.42;101744.16;5018788;28;96606;-78
2021/04/18 07:56:07;;;;;;;;;;;;;;;12.12;58.96;101732.81;5008869;28;100778;-79
2021/04/18 07:58:36;;;;;;;;;;;;;;;11.88;59.65;101729.03;5001796;28;98403;-77
2021/04/18 08:01:02;;;;;;;;;;;;;;;12.26;58.91;101730.69;4999938;28;96781;-79
2021/04/18 08:03:27;;;;;;;;;;;;;;;12.10;59.22;101735.50;5004400;28;97434;-79
2021/04/18 08:05:57;;;;;;;;;;;;;;;11.15;61.68;101734.25;5005613;28;99196;-78
2021/04/18 08:08:23;;;;;;;;;;;;;;;10.79;63.06;101738.56;5001599;28;98622;-80
2021/04/18 08:10:50;;;;;;;;;;;;;;;10.61;64.42;101735.41;5004442;28;96864;-80
2021/04/18 08:13:19;;;;;;;;;;;;;;;10.44;65.16;101748.06;4999375;28;96802;-79
2021/04/18 08:16:03;;;;;;;;;;;;;;;10.36;65.13;101753.53;5001004;28;98018;-79
2021/04/18 08:18:33;;;;;;;;;;;;;;;11.39;61.87;101729.31;5000918;28;99861;-79
2021/04/18 08:21:00;;;;;;;;;;;;;;;12.06;59.76;101738.28;4992407;28;99263;-78
2021/04/18 08:23:36;;;;;;;;;;;;;;;11.07;62.00;101738.84;4992123;28;98016;-77
2021/04/18 08:26:10;;;;;;;;;;;;;;;10.74;63.38;101744.84;4993566;28;98907;-79
2021/04/18 08:28:55;;;;;;;;;;;;;;;11.47;62.33;101733.53;4995784;28;97290;-78
2021/04/18 08:31:28;;;;;;;;;;;;;;;10.63;64.52;101747.69;4994891;28;98270;-76
2021/04/18 08:33:55;;;;;;;;;;;;;;;11.16;63.87;101737.75;4993215;28;97609;-78
2021/04/18 08:36:22;;;;;;;;;;;;;;;10.66;64.69;101730.91;4996853;28;101156;-78
2021/04/18 08:38:49;;;;;;;;;;;;;;;10.68;65.08;101739.69;4996224;28;98972;-78
2021/04/18 08:41:18;;;;;;;;;;;;;;;10.76;64.40;101733.31;5001224;28;97126;-78
2021/04/18 08:43:44;;;;;;;;;;;;;;;10.90;63.94;101730.38;5009967;28;96827;-77
2021/04/18 08:46:10;;;;;;;;;;;;;;;10.76;64.34;101722.75;5010241;28;98855;-78
2021/04/18 08:48:36;;;;;;;;;;;;;;;10.65;64.82;101730.03;5015445;28;97691;-78
2021/04/18 08:51:04;;;;;;;;;;;;;;;10.27;66.54;101735.19;5008866;28;96814;-81
2021/04/18 08:53:50;;;;;;;;;;;;;;;10.07;66.94;101740.78;5013358;28;97060;-78
2021/04/18 08:56:17;;;;;;;;;;;;;;;10.52;65.95;101733.81;5009916;28;97922;-78
2021/04/18 08:58:43;;;;;;;;;;;;;;;10.77;64.83;101732.41;5010698;28;98205;-78
2021/04/18 09:01:09;;;;;;;;;;;;;;;11.11;63.48;101719.34;5012384;28;96755;-78
2021/04/18 09:03:35;;;;;;;;;;;;;;;11.47;62.59;101727.34;5008596;28;97121;-78
2021/04/18 09:06:03;;;;;;;;;;;;;;;11.24;63.08;101712.00;5020712;28;117277;-78
2021/04/18 09:08:29;;;;;;;;;;;;;;;11.31;63.17;101718.91;5016052;28;98031;-79
2021/04/18 09:11:02;;;;;;;;;;;;;;;10.72;64.12;101729.00;5006375;28;96856;-77
2021/04/18 09:13:33;;;;;;;;;;;;;;;11.12;64.03;101728.16;4999935;28;96821;-79
2021/04/18 09:15:59;;;;;;;;;;;;;;;11.42;63.20;101730.09;4996837;28;99745;-79
2021/04/18 09:18:28;;;;;;;;;;;;;;;11.73;61.52;101724.09;5004542;28;99035;-79
2021/04/18 09:21:13;;;;;;;;;;;;;;;11.56;61.87;101732.41;5002786;28;96829;-79
2021/04/18 09:23:55;;;;;;;;;;;;;;;10.86;63.75;101734.00;5001913;28;96834;-78
2021/04/18 09:26:23;;;;;;;;;;;;;;;10.98;64.06;101724.94;4999989;28;104327;-79
2021/04/18 09:29:13;;;;;;;;;;;;;;;10.58;65.60;101723.13;5005893;28;99266;-78
2021/04/18 09:31:59;;;;;;;;;;;;;;;10.65;65.85;101723.88;5001996;28;96731;-81
2021/04/18 09:34:27;;;;;;;;;;;;;;;10.89;64.71;101710.16;4989533;28;97320;-78
2021/04/18 09:36:54;;;;;;;;;;;;;;;10.94;64.98;101700.34;4995608;28;99234;-79
2021/04/18 09:39:20;;;;;;;;;;;;;;;11.61;62.58;101682.91;4993031;28;99330;-80
2021/04/18 09:41:47;;;;;;;;;;;;;;;11.94;61.90;101681.19;5009439;28;96816;-79
2021/04/18 09:44:27;;;;;;;;;;;;;;;12.84;58.71;101683.94;5002009;28;96903;-79
2021/04/18 09:46:56;;;;;;;;;;;;;;;12.65;58.52;101688.94;4997725;28;99620;-79
2021/04/18 09:49:25;;;;;;;;;;;;;;;12.74;58.28;101705.44;5006482;28;98906;-78
2021/04/18 09:51:57;;;;;;;;;;;;;;;11.33;62.74;101710.94;5010649;28;97070;-79
2021/04/18 09:54:30;;;;;;;;;;;;;;;12.66;59.81;101701.28;4998878;28;97250;-78
2021/04/18 09:57:15;;;;;;;;;;;;;;;12.12;61.03;101707.19;4998054;28;98966;-78
2021/04/18 09:59:42;;;;;;;;;;;;;;;12.62;59.22;101689.88;4998580;28;98888;-79
2021/04/18 10:02:09;;;;;;;;;;;;;;;12.81;58.99;101684.03;5000683;28;97233;-79
2021/04/18 10:04:37;;;;;;;;;;;;;;;12.57;59.81;101693.56;4993500;28;97812;-78
2021/04/18 10:07:05;;;;;;;;;;;;;;;12.38;60.17;101683.50;4987997;28;99286;-78
2021/04/18 10:09:49;;;;;;;;;;;;;;;12.71;59.75;101686.97;4998194;28;101193;-78
2021/04/18 10:12:15;;;;;;;;;;;;;;;12.98;59.00;101695.88;4981254;28;98827;-79
2021/04/18 10:14:42;;;;;;;;;;;;;;;13.25;58.21;101698.66;4988987;28;97803;-77
2021/04/18 10:17:09;;;;;;;;;;;;;;;13.43;57.10;101693.59;4989872;28;97519;-78
2021/04/18 10:19:48;;;;;;;;;;;;;;;13.70;56.39;101691.84;4985873;28;99139;-78
2021/04/18 10:22:14;;;;;;;;;;;;;;;13.78;57.47;101689.81;4988095;28;97010;-77
2021/04/18 10:24:41;;;;;;;;;;;;;;;13.94;56.96;101693.66;4989765;28;97169;-78
2021/04/18 10:27:08;;;;;;;;;;;;;;;13.93;56.61;101694.56;4993069;28;98980;-78
2021/04/18 10:29:35;;;;;;;;;;;;;;;14.47;55.16;101695.38;4995139;28;98805;-79
2021/04/18 10:32:01;;;;;;;;;;;;;;;15.89;51.76;101681.69;4993164;28;96872;-79
2021/04/18 10:34:30;;;;;;;;;;;;;;;14.92;53.23;101687.44;4997193;28;97610;-81
2021/04/18 10:36:56;;;;;;;;;;;;;;;14.54;54.40;101686.25;4993825;28;99665;-78
2021/04/18 10:39:23;;;;;;;;;;;;;;;15.19;52.55;101681.03;5001036;28;99247;-79
2021/04/18 10:41:49;;;;;;;;;;;;;;;15.25;52.88;101679.94;5001267;28;97176;-80
2021/04/18 10:44:16;;;;;;;;;;;;;;;15.35;52.75;101683.97;4996157;28;97459;-78
2021/04/18 10:46:42;;;;;;;;;;;;;;;15.43;52.21;101681.84;4997100;28;97846;-80
2021/04/18 10:49:09;;;;;;;;;;;;;;;15.66;51.67;101675.63;4989148;28;97997;-79
2021/04/18 10:51:35;;;;;;;;;;;;;;;15.11;53.07;101678.69;4993974;28;98513;-78
2021/04/18 10:54:03;;;;;;;;;;;;;;;14.41;55.16;101683.16;4976583;28;97297;-79
2021/04/18 10:56:30;;;;;;;;;;;;;;;15.19;53.17;101672.19;4988652;28;100629;-80
2021/04/18 10:58:56;;;;;;;;;;;;;;;15.55;53.06;101678.75;4991752;28;97216;-78
2021/04/18 11:01:22;;;;;;;;;;;;;;;14.83;54.71;101674.50;4990306;28;97520;-78
2021/04/18 11:03:48;;;;;;;;;;;;;;;13.86;56.79;101687.72;4988803;28;96956;-81
2021/04/18 11:06:14;;;;;;;;;;;;;;;14.40;56.21;101686.75;4991192;28;100191;-78
2021/04/18 11:08:40;;;;;;;;;;;;;;;14.20;56.72;101691.88;4991420;28;98935;-78
2021/04/18 11:11:06;;;;;;;;;;;;;;;14.73;56.00;101689.94;4988042;28;97236;-80
2021/04/18 11:13:31;;;;;;;;;;;;;;;14.99;54.47;101689.81;4995011;28;98473;-80
2021/04/18 11:15:58;;;;;;;;;;;;;;;15.43;53.76;101680.06;5000397;28;96789;-80
2021/04/18 11:18:24;;;;;;;;;;;;;;;16.12;51.92;101685.19;4981715;28;98763;-80
2021/04/18 11:20:50;;;;;;;;;;;;;;;16.21;51.13;101690.97;4999282;28;97085;-78
2021/04/18 11:23:18;;;;;;;;;;;;;;;16.47;50.31;101688.97;4991402;28;97263;-78
2021/04/18 11:25:44;;;;;;;;;;;;;;;16.32;51.01;101688.72;4992591;28;98047;-80
2021/04/18 11:28:09;;;;;;;;;;;;;;;16.01;51.87;101682.13;4987311;28;98978;-79
2021/04/18 11:30:36;;;;;;;;;;;;;;;16.21;51.50;101682.97;4987293;28;97486;-79
2021/04/18 11:33:13;;;;;;;;;;;;;;;16.54;50.37;101679.75;4991610;28;97164;-79
2021/04/18 11:35:39;;;;;;;;;;;;;;;16.16;52.19;101678.75;4988735;28;98003;-79
2021/04/18 11:38:05;;;;;;;;;;;;;;;15.84;52.00;101683.69;4993151;28;100631;-78
2021/04/18 11:40:32;;;;;;;;;;;;;;;16.47;51.48;101673.81;4991115;28;96901;-79
2021/04/18 11:42:58;;;;;;;;;;;;;;;16.80;49.93;101670.56;4993574;28;97353;-78
2021/04/18 11:45:24;;;;;;;;;;;;;;;16.81;50.27;101667.81;4990385;28;97142;-77
2021/04/18 11:47:49;;;;;;;;;;;;;;;16.20;51.80;101677.72;4995001;28;98717;-79
2021/04/18 11:50:16;;;;;;;;;;;;;;;15.58;53.95;101678.59;5010611;28;96762;-78
2021/04/18 11:52:42;;;;;;;;;;;;;;;15.72;53.76;101680.69;5010909;28;96908;-77
2021/04/18 11:55:08;;;;;;;;;;;;;;;15.55;53.97;101684.06;4989680;28;99084;-79
2021/04/18 11:57:35;;;;;;;;;;;;;;;15.31;54.87;101679.69;4987022;28;99353;-78
2021/04/18 12:00:01;;;;;;;;;;;;;;;15.11;55.90;101675.16;4991680;28;99092;-77
2021/04/18 12:02:27;;;;;;;;;;;;;;;16.03;53.30;101666.91;4989749;28;97213;-77
2021/04/18 12:05:00;;;;;;;;;;;;;;;15.53;54.09;101665.47;4996309;28;99088;-79
2021/04/18 12:07:26;;;;;;;;;;;;;;;16.23;52.68;101661.56;4992942;28;98958;-78
2021/04/18 12:09:52;;;;;;;;;;;;;;;17.04;49.91;101662.25;5001384;28;97338;-77
2021/04/18 12:12:19;;;;;;;;;;;;;;;17.34;48.81;101656.34;4998764;28;97242;-79
2021/04/18 12:14:46;;;;;;;;;;;;;;;17.59;48.35;101654.19;4994796;28;98995;-81
2021/04/18 12:17:12;;;;;;;;;;;;;;;17.20;49.18;101651.69;4995931;28;99420;-81
2021/04/18 12:19:38;;;;;;;;;;;;;;;16.99;50.42;101658.09;5001873;28;97365;-82
2021/04/18 12:22:04;;;;;;;;;;;;;;;16.98;49.58;101657.22;5008151;28;96936;-80
2021/04/18 12:24:30;;;;;;;;;;;;;;;16.11;51.65;101646.97;5009215;28;98698;-82
2021/04/18 12:26:56;;;;;;;;;;;;;;;16.01;52.13;101652.81;5012666;28;100058;-79
2021/04/18 12:29:22;;;;;;;;;;;;;;;16.67;50.84;101644.44;5012427;28;96739;-83
2021/04/18 12:34:33;;;;;;;;;;;;;;;16.59;50.70;101643.03;5015068;28;97468;-81
2021/04/18 12:36:59;;;;;;;;;;;;;;;17.56;48.59;101643.66;5002949;28;98127;-81